Time;durP1;ratioP1;P1;durP2;ratioP2;P2;SDS_P1;SDS_P2;PMS_P1;PMS_P2;Temp;Humidity;BMP_temperature;BMP_pressure;BME280_temperature;BME280_humidity;BME280_pressure;Samples;Min_cycle;Max_cycle;Signal;HPM_P1;HPM_P2
2022/11/01 00:00:36;;;;;;;8.18;5.60;;;;;;;18.95;53.57;93457.66;5056754;28;20044;-91
2022/11/01 00:03:07;;;;;;;8.60;6.03;;;;;;;18.95;53.37;93466.59;5071149;28;20430;-87
2022/11/01 00:05:32;;;;;;;7.18;5.63;;;;;;;18.93;53.04;93460.16;5091651;28;20044;-90
2022/11/01 00:07:58;;;;;;;9.43;5.40;;;;;;;18.93;53.34;93457.41;5054206;28;20041;-91
2022/11/01 00:10:23;;;;;;;8.15;5.85;;;;;;;18.93;53.36;93463.63;5036496;28;20054;-89
2022/11/01 00:12:49;;;;;;;7.47;4.85;;;;;;;18.92;53.41;93458.66;5034844;28;20041;-88
2022/11/01 00:15:15;;;;;;;9.82;5.82;;;;;;;18.93;53.43;93457.41;5058169;28;20036;-91
2022/11/01 00:17:40;;;;;;;9.10;5.85;;;;;;;18.93;53.23;93468.38;5057787;28;20033;-88
2022/11/01 00:20:07;;;;;;;6.65;4.53;;;;;;;18.94;53.20;93458.91;5073601;28;20032;-91
2022/11/01 00:22:32;;;;;;;7.03;4.78;;;;;;;18.92;53.48;93458.66;5058709;23;20063;-88
2022/11/01 00:24:58;;;;;;;6.13;5.00;;;;;;;18.92;53.50;93462.16;5053229;28;20041;-91
2022/11/01 00:27:32;;;;;;;8.27;5.00;;;;;;;18.90;53.45;93461.91;5032855;28;20043;-88
2022/11/01 00:29:57;;;;;;;7.10;5.10;;;;;;;18.91;53.44;93455.19;5034607;28;20050;-90
2022/11/01 00:32:23;;;;;;;8.48;4.75;;;;;;;18.91;53.58;93463.41;5033380;28;20037;-89
2022/11/01 00:34:48;;;;;;;5.93;5.07;;;;;;;18.92;53.57;93458.66;5051627;28;20041;-90
2022/11/01 00:37:14;;;;;;;5.55;4.43;;;;;;;18.92;53.46;93459.41;5041681;28;20037;-92
2022/11/01 00:39:39;;;;;;;6.50;4.20;;;;;;;18.91;53.61;93457.94;5018744;28;20021;-92
2022/11/01 00:42:06;;;;;;;7.63;4.80;;;;;;;18.91;53.23;93454.44;5050726;28;20044;-91
2022/11/01 00:44:33;;;;;;;7.60;4.47;;;;;;;18.91;53.59;93462.66;5017423;28;20033;-91
2022/11/01 00:46:59;;;;;;;6.57;4.68;;;;;;;18.90;53.21;93453.69;5035712;28;20037;-92
2022/11/01 00:49:24;;;;;;;6.47;4.63;;;;;;;18.90;53.52;93456.44;5087253;22;20056;-91
2022/11/01 00:51:51;;;;;;;5.95;4.43;;;;;;;18.89;53.53;93459.69;5064771;28;20052;-87
2022/11/01 00:54:25;;;;;;;7.18;4.60;;;;;;;18.89;53.23;93456.94;5077490;28;20016;-91
2022/11/01 00:56:51;;;;;;;6.13;4.05;;;;;;;18.91;53.51;93460.66;5058778;28;20028;-88
2022/11/01 00:59:17;;;;;;;6.70;4.55;;;;;;;18.91;53.39;93454.44;5069526;22;20059;-88
2022/11/01 01:01:45;;;;;;;7.95;4.53;;;;;;;18.90;53.32;93452.97;5036687;28;20498;-87
2022/11/01 01:04:11;;;;;;;7.20;4.00;;;;;;;18.88;53.33;93458.19;5036610;28;20039;-89
2022/11/01 01:09:06;;;;;;;6.00;4.25;;;;;;;18.90;53.49;93458.44;5066452;28;20048;-88
2022/11/01 01:11:31;;;;;;;6.40;4.35;;;;;;;18.89;53.60;93454.22;5058116;23;20038;-89
2022/11/01 01:13:57;;;;;;;5.47;4.18;;;;;;;18.89;53.25;93454.22;5077039;28;20046;-93
2022/11/01 01:16:22;;;;;;;5.60;4.10;;;;;;;18.90;53.28;93452.97;5075540;28;20096;-89
2022/11/01 01:18:54;;;;;;;5.43;3.88;;;;;;;18.88;53.40;93452.72;5076707;28;20020;-90
2022/11/01 01:21:29;;;;;;;5.53;4.18;;;;;;;18.88;53.36;93444.50;5091101;28;20040;-87
2022/11/01 01:23:54;;;;;;;5.43;3.50;;;;;;;18.88;53.42;93455.47;5072370;28;20048;-93
2022/11/01 01:26:20;;;;;;;5.35;3.53;;;;;;;18.88;53.16;93448.00;5079001;28;20047;-92
2022/11/01 01:28:45;;;;;;;5.90;3.53;;;;;;;18.87;53.34;93457.47;5049752;23;20372;-90
2022/11/01 01:31:11;;;;;;;4.55;3.10;;;;;;;18.87;53.46;93454.72;5056333;28;20049;-90
2022/11/01 01:33:37;;;;;;;5.60;4.00;;;;;;;18.87;53.61;93460.19;5040745;28;20056;-89
2022/11/01 01:36:11;;;;;;;4.47;3.65;;;;;;;18.87;53.44;93454.72;5039134;28;20025;-90
2022/11/01 01:38:40;;;;;;;4.32;3.28;;;;;;;18.88;53.31;93450.72;5057450;28;20037;-87
2022/11/01 01:43:49;;;;;;;4.90;3.17;;;;;;;18.87;53.16;93454.72;5046671;28;20047;-90
2022/11/01 01:46:15;;;;;;;4.72;3.30;;;;;;;18.87;53.18;93456.72;5025229;28;20020;-88
2022/11/01 01:48:41;;;;;;;4.47;3.47;;;;;;;18.86;53.42;93450.50;5025540;28;20225;-89
2022/11/01 01:51:09;;;;;;;7.45;3.55;;;;;;;18.86;53.44;93444.28;5039310;28;20030;-89
2022/11/01 01:54:02;;;;;;;4.93;3.45;;;;;;;18.85;53.18;93446.28;5041637;28;20045;-88
2022/11/01 01:56:30;;;;;;;5.78;3.33;;;;;;;18.87;53.30;93448.50;5016742;28;20501;-92
2022/11/01 01:59:03;;;;;;;4.13;3.15;;;;;;;18.84;53.40;93440.06;4984204;28;20046;-92
2022/11/01 02:01:38;;;;;;;4.10;3.10;;;;;;;18.84;53.34;93444.78;4981385;28;20045;-89
2022/11/01 02:04:16;;;;;;;3.95;3.10;;;;;;;18.86;53.39;93436.06;4982533;28;20042;-88
2022/11/01 02:06:42;;;;;;;5.88;3.40;;;;;;;18.86;53.05;93438.81;4999710;28;20053;-87
2022/11/01 02:09:07;;;;;;;4.38;3.30;;;;;;;18.84;53.44;93437.31;4999327;28;20046;-90
2022/11/01 02:11:33;;;;;;;4.68;3.20;;;;;;;18.86;53.49;93438.81;4999612;28;20046;-90
2022/11/01 02:13:59;;;;;;;4.13;3.22;;;;;;;18.84;53.43;93434.56;5000938;28;20044;-90
2022/11/01 02:17:02;;;;;;;3.80;2.88;;;;;;;18.84;53.37;93431.09;4995952;28;20034;-92
2022/11/01 02:19:39;;;;;;;4.78;3.50;;;;;;;18.84;53.27;93437.31;5012717;28;20030;-91
2022/11/01 02:22:11;;;;;;;4.53;3.05;;;;;;;18.84;53.58;93442.03;5012050;28;20042;-93
2022/11/01 02:24:48;;;;;;;3.10;2.50;;;;;;;18.83;53.30;93440.59;4996139;28;20114;-90
2022/11/01 02:27:22;;;;;;;5.25;3.00;;;;;;;18.85;53.22;93440.78;4971413;28;20042;-88
2022/11/01 02:30:06;;;;;;;3.22;2.78;;;;;;;18.84;53.16;93442.03;4997289;28;20022;-88
2022/11/01 02:32:40;;;;;;;3.75;2.72;;;;;;;18.82;53.00;93437.09;5005358;28;20039;-90
2022/11/01 02:35:37;;;;;;;5.70;3.00;;;;;;;18.82;53.21;93437.09;5031470;28;20068;-92
2022/11/01 02:38:18;;;;;;;3.25;2.42;;;;;;;18.82;53.37;93436.38;5015635;28;20065;-88
2022/11/01 02:41:21;;;;;;;3.90;2.60;;;;;;;18.83;53.30;93443.34;5017078;28;20129;-90
2022/11/01 02:43:52;;;;;;;4.50;3.50;;;;;;;18.82;53.25;93442.59;5032675;28;20037;-87
2022/11/01 02:49:05;;;;;;;3.25;2.45;;;;;;;18.84;53.12;93444.78;5035677;28;20064;-91
2022/11/01 02:51:31;;;;;;;5.13;2.70;;;;;;;18.82;53.32;93445.31;5049471;28;20037;-88
2022/11/01 02:54:00;;;;;;;3.97;2.70;;;;;;;18.82;53.17;93437.09;5054824;23;20048;-89
2022/11/01 02:56:25;;;;;;;3.58;2.63;;;;;;;18.83;53.19;93435.13;5038272;28;20037;-93
2022/11/01 02:58:57;;;;;;;2.95;2.47;;;;;;;18.82;53.27;93439.09;5037500;28;20051;-91
2022/11/01 03:01:23;;;;;;;3.50;2.63;;;;;;;18.81;52.99;93432.13;5038034;28;20045;-91
2022/11/01 03:03:48;;;;;;;3.33;2.60;;;;;;;18.81;53.15;93441.09;5055096;22;20056;-88
2022/11/01 03:06:32;;;;;;;3.95;2.38;;;;;;;18.81;53.28;93440.34;5022260;28;20040;-87
2022/11/01 03:09:03;;;;;;;4.30;2.63;;;;;;;18.82;53.12;93441.84;5023287;28;20032;-92
2022/11/01 03:11:35;;;;;;;3.17;2.30;;;;;;;18.81;53.31;93443.09;5040582;23;20114;-93
2022/11/01 03:14:22;;;;;;;3.58;2.70;;;;;;;18.81;52.96;93443.84;5055704;28;20124;-87
2022/11/01 03:17:09;;;;;;;4.82;2.50;;;;;;;18.81;53.06;93443.84;5054507;28;20037;-91
2022/11/01 03:19:42;;;;;;;2.85;2.45;;;;;;;18.81;53.13;93446.59;5068983;28;20041;-92
2022/11/01 03:22:32;;;;;;;2.80;2.28;;;;;;;18.79;53.13;93446.34;5054702;28;20029;-92
2022/11/01 03:28:08;;;;;;;;;;;;;;;18.82;53.02;93448.06;5063649;28;20051;-92
2022/11/01 03:30:43;;;;;;;3.72;2.20;;;;;;;18.80;52.89;93450.56;5049162;28;19921;-90
2022/11/01 03:33:10;;;;;;;2.92;2.03;;;;;;;18.79;53.01;93440.88;5049930;28;20380;-87
2022/11/01 03:35:36;;;;;;;2.67;2.00;;;;;;;18.78;53.10;93452.34;5055243;28;20040;-93
2022/11/01 03:38:05;;;;;;;2.42;1.92;;;;;;;18.76;53.27;93461.06;5068383;28;20044;-91
2022/11/01 03:40:32;;;;;;;2.75;1.90;;;;;;;18.78;53.21;93460.56;5070338;28;20037;-89
2022/11/01 03:43:01;;;;;;;3.67;2.35;;;;;;;18.78;53.15;93461.28;5054038;28;20055;-91
2022/11/01 03:45:26;;;;;;;3.35;2.13;;;;;;;18.79;53.30;93454.56;5053018;28;20029;-88
2022/11/01 03:47:52;;;;;;;4.10;2.10;;;;;;;18.79;53.07;93462.03;5057163;28;20044;-89
2022/11/01 03:50:19;;;;;;;3.70;2.45;;;;;;;18.79;52.91;93462.03;5072304;28;20040;-90
2022/11/01 03:52:45;;;;;;;4.28;2.15;;;;;;;18.79;53.23;93462.03;5053483;28;20024;-87
2022/11/01 03:55:17;;;;;;;4.75;2.60;;;;;;;18.77;53.29;93465.28;5067743;23;20052;-91
2022/11/01 03:57:52;;;;;;;3.40;2.03;;;;;;;18.77;53.05;93465.28;5078649;28;20042;-89
2022/11/01 04:00:28;;;;;;;2.33;1.70;;;;;;;18.77;53.11;93473.50;5061425;28;20502;-88
2022/11/01 04:02:54;;;;;;;3.40;2.20;;;;;;;18.78;53.04;93458.56;5093165;28;20020;-92
2022/11/01 04:05:21;;;;;;;2.88;1.75;;;;;;;18.77;52.96;93470.03;5040334;28;20035;-88
2022/11/01 04:07:50;;;;;;;4.25;2.28;;;;;;;18.78;52.98;93471.50;5059784;28;20033;-92
2022/11/01 04:10:15;;;;;;;3.50;2.17;;;;;;;18.78;53.09;93476.97;5073036;28;20115;-87
2022/11/01 04:12:43;;;;;;;2.72;1.73;;;;;;;18.77;53.21;93470.75;5092807;28;20052;-90
2022/11/01 04:21:08;;;;;;;2.20;1.90;;;;;;;18.77;53.15;93454.31;5108224;28;20047;-88
2022/11/01 04:23:34;;;;;;;2.40;1.80;;;;;;;18.76;53.25;93471.28;5077842;28;20052;-88
2022/11/01 04:26:06;;;;;;;4.43;1.92;;;;;;;18.76;53.28;93469.28;5072008;28;20070;-93
2022/11/01 04:28:32;;;;;;;2.03;1.63;;;;;;;18.75;53.13;93462.31;5056581;28;20036;-93
2022/11/01 04:31:20;;;;;;;2.42;1.90;;;;;;;18.76;53.03;93460.31;5073915;28;20069;-87
2022/11/01 04:33:46;;;;;;;2.63;2.10;;;;;;;18.76;53.08;93457.56;5045713;22;20038;-92
2022/11/01 04:36:11;;;;;;;3.33;2.08;;;;;;;18.76;53.21;93460.31;4996167;28;20037;-90
2022/11/01 04:38:36;;;;;;;2.88;1.90;;;;;;;18.75;53.17;93459.56;5011874;28;20038;-92
2022/11/01 04:41:02;;;;;;;2.72;1.80;;;;;;;18.75;53.32;93467.03;4994697;28;20068;-91
2022/11/01 04:43:29;;;;;;;2.50;1.70;;;;;;;18.76;53.08;93460.31;4995554;28;20038;-91
2022/11/01 04:45:55;;;;;;;2.72;1.75;;;;;;;18.74;53.16;93469.03;4995688;28;20073;-90
2022/11/01 04:48:21;;;;;;;4.40;1.98;;;;;;;18.73;52.98;93462.06;4996221;28;20038;-90
2022/11/01 04:50:46;;;;;;;2.55;1.52;;;;;;;18.74;53.21;93460.09;5009078;28;20038;-90
2022/11/01 04:53:12;;;;;;;2.60;1.60;;;;;;;18.75;52.98;93461.56;5019500;28;20051;-91
2022/11/01 04:55:37;;;;;;;2.50;2.13;;;;;;;18.74;53.10;93460.81;5016424;28;20037;-91
2022/11/01 04:58:13;;;;;;;2.70;1.80;;;;;;;18.75;52.98;93456.09;5027161;28;20040;-89
2022/11/01 05:00:38;;;;;;;2.83;1.60;;;;;;;18.74;53.17;93463.56;5012401;28;20034;-92
2022/11/01 05:03:05;;;;;;;2.33;1.83;;;;;;;18.74;52.38;93458.09;5013125;28;20047;-89
2022/11/01 05:05:31;;;;;;;3.47;1.80;;;;;;;18.74;52.98;93454.59;5008638;28;20031;-90
2022/11/01 05:08:04;;;;;;;2.78;1.77;;;;;;;18.74;53.21;93460.09;5007905;23;20029;-93
2022/11/01 05:10:30;;;;;;;2.05;1.40;;;;;;;18.75;52.70;93462.31;5068896;28;20044;-91
2022/11/01 05:12:56;;;;;;;2.28;1.65;;;;;;;18.73;52.74;93473.03;5052448;28;20122;-92
2022/11/01 05:15:21;;;;;;;1.95;1.60;;;;;;;18.72;52.91;93470.81;5060808;23;20064;-87
2022/11/01 05:17:47;;;;;;;2.45;1.48;;;;;;;18.73;53.01;93467.56;5072055;28;20020;-87
2022/11/01 05:20:12;;;;;;;2.45;1.80;;;;;;;18.73;52.61;93461.34;5038856;28;20035;-89
2022/11/01 05:22:39;;;;;;;2.47;1.73;;;;;;;18.73;52.49;93464.06;5038870;28;20043;-91
2022/11/01 05:25:04;;;;;;;2.20;1.65;;;;;;;18.72;52.86;93459.84;5037413;28;20033;-90
2022/11/01 05:27:32;;;;;;;2.42;1.50;;;;;;;18.72;53.12;93465.31;5035488;28;20090;-92
2022/11/01 05:29:57;;;;;;;2.30;1.77;;;;;;;18.74;52.78;93457.34;5033833;28;20041;-92
2022/11/01 05:32:25;;;;;;;1.77;1.60;;;;;;;18.78;52.70;93468.75;5017591;28;20037;-93
2022/11/01 05:35:03;;;;;;;2.40;1.45;;;;;;;18.75;53.03;93467.03;5032429;28;20041;-92
2022/11/01 05:37:31;;;;;;;3.47;1.80;;;;;;;18.77;52.75;93470.75;5049337;28;20037;-92
2022/11/01 05:39:56;;;;;;;1.98;1.35;;;;;;;18.73;53.00;93464.81;5049435;28;20102;-92
2022/11/01 05:42:22;;;;;;;2.33;1.60;;;;;;;18.75;52.63;93465.06;5035599;28;20044;-93
2022/11/01 05:44:47;;;;;;;2.10;1.52;;;;;;;18.74;52.57;93469.03;5031624;28;20090;-91
2022/11/01 05:47:13;;;;;;;1.80;1.30;;;;;;;18.78;52.77;93460.56;5017399;28;20033;-93
2022/11/01 05:49:38;;;;;;;1.95;1.38;;;;;;;18.72;52.65;93468.81;5047220;28;20041;-90
2022/11/01 05:52:12;;;;;;;3.05;1.27;;;;;;;18.73;53.07;93473.03;5048704;28;20041;-90
2022/11/01 05:54:38;;;;;;;6.32;5.20;;;;;;;18.76;52.73;93465.78;5054649;22;20044;-88
2022/11/01 05:57:04;;;;;;;31.10;24.50;;;;;;;18.78;52.57;93469.50;5040733;28;20117;-90
2022/11/01 05:59:29;;;;;;;6.55;5.35;;;;;;;18.74;53.00;93482.00;5042836;28;20044;-92
2022/11/01 06:01:55;;;;;;;6.47;4.32;;;;;;;18.77;52.55;93484.44;5079033;28;20031;-89
2022/11/01 06:04:21;;;;;;;5.13;3.80;;;;;;;18.77;52.66;93486.44;5054200;28;20037;-89
2022/11/01 06:06:47;;;;;;;4.25;3.08;;;;;;;18.76;52.82;93496.66;5025074;28;20419;-91
2022/11/01 06:09:13;;;;;;;4.00;3.15;;;;;;;18.76;52.62;93490.44;5027880;28;20064;-92
2022/11/01 06:11:38;;;;;;;3.67;2.60;;;;;;;18.79;52.30;93501.13;5061299;28;20059;-93
2022/11/01 06:14:03;;;;;;;3.40;2.72;;;;;;;18.76;52.83;93501.41;5026158;28;20045;-88
2022/11/01 06:16:29;;;;;;;4.22;3.13;;;;;;;18.77;52.92;93505.63;5032731;28;20037;-92
2022/11/01 06:18:54;;;;;;;4.00;3.10;;;;;;;18.78;52.25;93507.09;5009284;28;20037;-93
2022/11/01 06:21:29;;;;;;;3.67;3.13;;;;;;;18.78;52.76;93507.09;5007585;28;20030;-91
2022/11/01 06:23:54;;;;;;;3.47;3.08;;;;;;;18.77;52.90;93503.63;5012897;28;20091;-89
2022/11/01 06:26:19;;;;;;;4.40;3.97;;;;;;;18.78;52.39;93509.84;5015509;28;20118;-89
2022/11/01 06:28:45;;;;;;;5.85;3.35;;;;;;;18.78;52.59;93513.31;5036557;28;20033;-90
2022/11/01 06:31:11;;;;;;;3.53;2.75;;;;;;;18.77;52.68;93525.53;5031744;28;20037;-92
2022/11/01 06:33:36;;;;;;;3.75;2.42;;;;;;;18.76;52.69;93517.81;4999425;28;20065;-93
2022/11/01 06:36:04;;;;;;;3.58;2.20;;;;;;;18.76;52.78;93524.03;5006512;28;20169;-93
2022/11/01 06:38:29;;;;;;;3.38;2.78;;;;;;;18.79;52.76;93523.03;5007974;28;20049;-91
2022/11/01 06:40:55;;;;;;;3.00;2.63;;;;;;;18.81;52.72;93536.22;5016328;28;20500;-90
2022/11/01 06:43:20;;;;;;;4.15;3.00;;;;;;;18.79;52.63;93533.25;4993934;28;20459;-90
2022/11/01 06:45:52;;;;;;;3.85;3.28;;;;;;;18.79;53.01;93535.97;5030637;28;20037;-90
2022/11/01 06:48:18;;;;;;;3.33;2.72;;;;;;;18.80;52.46;93540.22;5047254;28;20098;-88
2022/11/01 06:50:44;;;;;;;4.22;3.45;;;;;;;18.81;52.63;93550.66;5069287;28;20040;-89
2022/11/01 06:53:21;;;;;;;3.60;3.10;;;;;;;18.82;52.99;93549.41;5062921;28;20033;-89
2022/11/01 06:55:47;;;;;;;3.20;2.67;;;;;;;18.83;52.67;93558.38;5048833;28;20067;-93
2022/11/01 06:58:12;;;;;;;4.00;2.80;;;;;;;18.85;52.53;93569.53;5043619;28;20037;-91
2022/11/01 07:00:38;;;;;;;5.20;2.53;;;;;;;18.85;52.48;93572.25;5045332;28;20506;-93
2022/11/01 07:03:05;;;;;;;2.80;2.20;;;;;;;18.85;52.45;93575.00;5046267;28;20372;-88
2022/11/01 07:05:36;;;;;;;230.40;205.30;;;;;;;18.90;52.77;93574.22;5072080;28;20033;-88
2022/11/01 07:08:08;;;;;;;;;;;;;;;18.89;52.44;93567.25;5028173;28;20055;-92
2022/11/01 07:10:34;;;;;;;12.80;9.73;;;;;;;18.89;52.45;93570.00;5064787;28;19935;-89
2022/11/01 07:13:01;;;;;;;5.10;3.35;;;;;;;18.93;52.47;93584.16;5044472;28;20067;-90
2022/11/01 07:15:27;;;;;;;4.13;3.40;;;;;;;18.93;52.22;93570.47;5023372;28;20033;-92
2022/11/01 07:18:00;;;;;;;7.80;5.50;;;;;;;18.91;52.49;93578.44;5022692;28;20033;-91
2022/11/01 07:20:26;;;;;;;78.32;69.38;;;;;;;18.95;52.44;93589.88;5086695;28;20438;-89
2022/11/01 07:23:04;;;;;;;11.73;9.60;;;;;;;18.94;52.53;93587.66;5064587;28;20060;-92
2022/11/01 07:25:30;;;;;;;7.18;5.85;;;;;;;18.92;52.39;93588.16;5031184;28;20037;-91
2022/11/01 07:27:56;;;;;;;5.80;5.03;;;;;;;18.94;52.19;93593.13;5043907;28;20044;-91
2022/11/01 07:30:24;;;;;;;8.32;6.70;;;;;;;18.96;52.26;93596.09;5043636;28;20063;-89
2022/11/01 07:32:58;;;;;;;7.47;6.20;;;;;;;18.93;52.37;93603.34;5064050;28;20036;-91
2022/11/01 07:35:24;;;;;;;6.90;5.68;;;;;;;18.95;52.40;93600.84;5025932;28;20056;-91
2022/11/01 07:37:49;;;;;;;6.53;5.47;;;;;;;18.95;52.52;93597.34;5025927;28;20033;-92
2022/11/01 07:40:15;;;;;;;7.15;5.22;;;;;;;18.98;52.35;93605.31;5025152;28;20045;-89
2022/11/01 07:42:41;;;;;;;4.90;4.30;;;;;;;18.99;52.39;93604.06;5041824;28;20041;-91
2022/11/01 07:45:19;;;;;;;5.38;4.68;;;;;;;18.97;52.20;93605.81;5018870;28;20047;-93
2022/11/01 07:47:45;;;;;;;5.13;4.47;;;;;;;18.96;52.38;93610.53;5062301;28;20044;-88
2022/11/01 07:50:10;;;;;;;4.63;3.90;;;;;;;18.98;52.22;93605.31;5043387;28;20037;-92
2022/11/01 07:52:37;;;;;;;4.60;3.85;;;;;;;19.00;52.14;93602.06;5041421;28;20048;-92
2022/11/01 07:55:02;;;;;;;4.70;4.20;;;;;;;19.00;52.08;93604.78;5042893;28;20498;-90
2022/11/01 07:57:28;;;;;;;3.90;3.47;;;;;;;19.00;52.58;93599.31;5052482;28;20039;-89
2022/11/01 07:59:54;;;;;;;12.35;11.15;;;;;;;19.01;52.35;93595.31;5069873;28;20062;-89
2022/11/01 08:02:19;;;;;;;6.90;5.00;;;;;;;19.02;52.32;93605.78;5042450;28;20553;-89
2022/11/01 08:04:45;;;;;;;5.78;4.88;;;;;;;19.02;52.04;93597.56;5024239;28;20422;-91
2022/11/01 08:07:11;;;;;;;4.35;3.95;;;;;;;19.04;52.24;93605.28;5027429;28;20160;-91
2022/11/01 08:09:37;;;;;;;4.22;3.75;;;;;;;19.04;52.24;93606.00;5031366;28;20056;-92
2022/11/01 08:12:02;;;;;;;4.63;3.78;;;;;;;19.06;52.23;93608.97;5012250;28;20518;-89
2022/11/01 08:14:28;;;;;;;4.53;3.65;;;;;;;19.06;52.14;93600.75;5011366;28;20099;-92
2022/11/01 08:17:07;;;;;;;4.68;3.78;;;;;;;19.04;52.44;93603.28;5006127;28;20049;-90
2022/11/01 08:19:33;;;;;;;4.28;3.78;;;;;;;19.09;52.11;93604.47;5010873;28;20161;-89
2022/11/01 08:21:58;;;;;;;4.47;3.60;;;;;;;19.07;52.38;93606.97;5021907;28;20034;-90
2022/11/01 08:24:25;;;;;;;8.60;3.83;;;;;;;19.06;52.39;93614.44;4995500;28;20041;-91
2022/11/01 08:26:51;;;;;;;3.60;3.10;;;;;;;19.06;52.12;93647.31;5031103;28;20036;-92
2022/11/01 08:29:17;;;;;;;222.68;203.23;;;;;;;19.09;52.18;93648.31;5018426;28;20116;-92
2022/11/01 08:31:42;;;;;;;16.17;12.57;;;;;;;19.08;52.04;93647.56;5014812;28;20089;-90
2022/11/01 08:34:08;;;;;;;23.42;20.42;;;;;;;19.04;52.25;93649.84;5029777;28;20036;-89
2022/11/01 08:36:33;;;;;;;18.25;9.82;;;;;;;19.08;52.22;93650.28;5038194;28;20037;-91
2022/11/01 08:38:59;;;;;;;11.52;6.47;;;;;;;19.10;52.03;93656.00;5040970;28;20040;-91
2022/11/01 08:41:27;;;;;;;7.78;4.68;;;;;;;19.12;52.07;93655.50;5029781;28;20474;-91
2022/11/01 08:43:52;;;;;;;6.90;5.85;;;;;;;19.11;51.96;93660.25;5019135;28;20464;-90
2022/11/01 08:46:17;;;;;;;10.43;8.07;;;;;;;19.08;52.43;93664.00;5039853;28;20032;-92
2022/11/01 08:48:51;;;;;;;44.55;32.03;;;;;;;19.09;52.36;93670.22;5045519;28;20052;-90
2022/11/01 08:51:23;;;;;;;15.27;11.98;;;;;;;19.10;51.91;93672.47;5018785;28;20033;-90
2022/11/01 08:53:48;;;;;;;18.85;14.52;;;;;;;19.11;52.28;93667.72;5027405;28;20074;-91
2022/11/01 08:56:14;;;;;;;21.38;14.63;;;;;;;19.11;52.02;93670.47;5041141;28;20044;-90
2022/11/01 08:58:39;;;;;;;18.80;12.90;;;;;;;19.14;51.99;93675.66;5045700;28;20043;-89
2022/11/01 09:01:04;;;;;;;19.73;10.07;;;;;;;19.13;52.33;93674.19;5058337;28;20515;-92
2022/11/01 09:03:32;;;;;;;49.97;11.98;;;;;;;19.15;52.32;93677.16;5039832;28;20036;-90
2022/11/01 09:05:59;;;;;;;36.20;9.70;;;;;;;19.14;52.05;93683.16;5057766;28;20044;-91
2022/11/01 09:08:27;;;;;;;64.32;22.52;;;;;;;19.13;52.29;93676.19;5038233;28;20044;-89
2022/11/01 09:10:56;;;;;;;64.15;18.23;;;;;;;19.10;52.27;93693.63;5039459;28;20040;-93
2022/11/01 09:13:22;;;;;;;57.58;17.50;;;;;;;19.14;52.05;93697.59;5057156;28;20043;-90
2022/11/01 09:15:47;;;;;;;36.92;15.13;;;;;;;19.16;52.36;93695.09;5058544;28;20036;-93
2022/11/01 09:18:13;;;;;;;34.22;11.88;;;;;;;19.15;52.24;93699.09;5062524;28;20045;-88
2022/11/01 09:20:38;;;;;;;37.22;12.27;;;;;;;19.16;52.32;93697.84;5031067;28;20036;-90
2022/11/01 09:23:03;;;;;;;37.72;11.60;;;;;;;19.16;52.17;93691.59;5057310;28;20036;-91
2022/11/01 09:25:29;;;;;;;22.88;9.75;;;;;;;19.16;52.30;93699.81;5038035;28;20487;-91
2022/11/01 09:27:56;;;;;;;28.85;10.32;;;;;;;19.17;52.06;93693.84;5037671;28;20082;-93
2022/11/01 09:30:22;;;;;;;39.53;16.25;;;;;;;19.15;52.14;93693.59;5046531;28;20438;-89
2022/11/01 09:32:47;;;;;;;26.40;11.45;;;;;;;19.18;52.26;93705.53;5042355;28;20028;-92
2022/11/01 09:35:13;;;;;;;31.83;12.60;;;;;;;19.15;52.12;93704.56;5039057;28;20040;-93
2022/11/01 09:37:38;;;;;;;31.08;15.77;;;;;;;19.15;52.56;93712.03;5038380;28;20035;-91
2022/11/01 09:40:04;;;;;;;30.30;14.40;;;;;;;19.16;52.29;93713.53;5043851;28;20040;-87
2022/11/01 09:42:33;;;;;;;45.65;22.15;;;;;;;19.17;52.37;93707.53;5056128;28;20559;-92
2022/11/01 09:45:02;;;;;;;58.70;29.88;;;;;;;19.18;52.42;93714.50;5051874;28;20048;-90
2022/11/01 09:47:28;;;;;;;45.10;25.90;;;;;;;19.17;52.33;93713.03;5041521;28;20032;-91
2022/11/01 09:50:16;;;;;;;45.35;25.05;;;;;;;19.16;52.29;93719.00;5039087;28;20036;-91
2022/11/01 09:52:41;;;;;;;57.28;25.88;;;;;;;19.18;52.22;93719.25;5062270;28;20069;-87
2022/11/01 09:55:15;;;;;;;51.05;28.98;;;;;;;19.15;52.56;93720.25;5053596;28;20033;-89
2022/11/01 09:57:47;;;;;;;54.15;27.90;;;;;;;19.18;52.46;93733.69;5039584;28;20044;-91
2022/11/01 10:00:17;;;;;;;41.97;25.30;;;;;;;19.20;52.22;93729.72;5055123;28;20043;-88
2022/11/01 10:03:05;;;;;;;66.07;36.50;;;;;;;19.16;52.31;93738.94;5023523;28;20059;-93
2022/11/01 10:05:51;;;;;;;78.03;46.33;;;;;;;19.20;52.41;93735.19;5042176;28;20043;-91
2022/11/01 10:08:32;;;;;;;103.15;62.80;;;;;;;19.18;52.42;93741.16;5059006;28;20036;-87
2022/11/01 10:11:11;;;;;;;;;;;;;;;19.17;52.48;93739.69;5069596;28;20457;-90
2022/11/01 10:13:51;;;;;;;78.85;46.83;;;;;;;19.18;52.23;93744.66;5077636;28;19927;-90
2022/11/01 10:16:36;;;;;;;87.30;49.88;;;;;;;19.18;52.46;93735.69;5060070;28;20047;-92
2022/11/01 10:19:13;;;;;;;88.90;52.67;;;;;;;19.17;52.48;93726.72;5092550;28;20044;-91
2022/11/01 10:21:43;;;;;;;112.35;65.95;;;;;;;19.20;52.13;93732.44;5059549;28;20044;-88
2022/11/01 10:24:18;;;;;;;115.60;69.68;;;;;;;19.18;52.62;93730.22;5059653;28;20127;-87
2022/11/01 10:26:44;;;;;;;134.75;83.88;;;;;;;19.19;52.58;93728.97;5042838;28;20048;-88
2022/11/01 10:29:14;;;;;;;122.05;77.22;;;;;;;19.16;52.59;93733.47;5040298;28;20041;-87
2022/11/01 10:31:42;;;;;;;103.32;69.30;;;;;;;19.17;52.63;93740.44;5043578;28;20040;-92
2022/11/01 10:34:29;;;;;;;128.00;74.55;;;;;;;19.17;52.45;93737.69;5052654;28;20031;-92
2022/11/01 10:37:07;;;;;;;113.53;67.95;;;;;;;19.19;52.71;93734.44;5062591;28;20180;-90
2022/11/01 10:39:54;;;;;;;135.57;67.05;;;;;;;19.16;52.64;93738.94;5079429;28;20032;-90
2022/11/01 10:42:20;;;;;;;115.97;66.00;;;;;;;19.21;52.55;93726.47;5045143;28;20139;-92
2022/11/01 10:44:54;;;;;;;107.90;65.55;;;;;;;19.22;52.23;93738.91;5054549;28;20040;-93
2022/11/01 10:47:19;;;;;;;112.95;65.88;;;;;;;19.22;52.45;93730.69;5054854;28;20048;-92
2022/11/01 10:49:48;;;;;;;112.00;63.15;;;;;;;19.23;52.39;93740.41;5039246;28;20272;-89
2022/11/01 10:52:14;;;;;;;110.90;67.57;;;;;;;19.23;52.63;93732.19;5055799;28;20057;-88
2022/11/01 10:54:40;;;;;;;125.72;70.93;;;;;;;19.20;52.77;93733.19;5067929;28;20118;-92
2022/11/01 10:57:16;;;;;;;114.15;65.45;;;;;;;19.20;52.43;93735.19;5041059;28;20032;-90
2022/11/01 10:59:43;;;;;;;117.88;70.35;;;;;;;19.21;52.69;93725.72;5039157;28;20040;-91
2022/11/01 11:02:29;;;;;;;108.47;64.13;;;;;;;19.21;52.63;93737.41;5056503;28;20595;-87
2022/11/01 11:04:55;;;;;;;114.47;68.15;;;;;;;19.20;52.50;93730.44;5063283;28;20051;-90
2022/11/01 11:07:20;;;;;;;107.60;66.72;;;;;;;19.25;52.45;93731.66;5046050;28;20040;-93
2022/11/01 11:09:48;;;;;;;101.30;67.00;;;;;;;19.22;52.66;93724.47;5065921;28;20037;-92
2022/11/01 11:12:21;;;;;;;113.78;63.35;;;;;;;19.17;52.74;93726.72;5072471;28;20143;-90
2022/11/01 11:14:47;;;;;;;106.35;63.58;;;;;;;19.22;52.99;93729.94;5059406;28;20406;-87
2022/11/01 11:17:20;;;;;;;98.50;65.43;;;;;;;19.23;52.50;93734.91;5062816;28;20028;-88
2022/11/01 11:19:46;;;;;;;105.35;66.18;;;;;;;19.21;52.77;93729.19;5072570;28;20036;-89
2022/11/01 11:22:11;;;;;;;102.13;61.63;;;;;;;19.23;52.66;93726.69;5054371;28;20040;-88
2022/11/01 11:24:42;;;;;;;94.28;57.10;;;;;;;19.23;52.53;93728.69;5072215;28;20066;-86
2022/11/01 11:27:20;;;;;;;95.70;59.15;;;;;;;19.21;52.73;93720.22;5048810;28;20041;-89
2022/11/01 11:29:54;;;;;;;91.45;58.15;;;;;;;19.20;52.76;93724.97;5085734;28;20048;-89
2022/11/01 11:32:28;;;;;;;90.25;58.03;;;;;;;19.22;52.61;93713.50;5042079;28;20679;-88
2022/11/01 11:34:54;;;;;;;85.88;56.80;;;;;;;19.23;52.51;93704.03;5058380;28;20092;-93
2022/11/01 11:37:30;;;;;;;85.32;56.97;;;;;;;19.21;52.57;93701.78;5070692;28;20040;-92
2022/11/01 11:40:15;;;;;;;85.43;56.10;;;;;;;19.21;52.70;93704.53;5076233;28;20051;-91
2022/11/01 11:42:44;;;;;;;87.68;57.40;;;;;;;19.19;52.90;93704.28;5088653;28;20099;-90
2022/11/01 11:45:31;;;;;;;100.03;62.92;;;;;;;19.21;52.74;93706.53;5056402;28;20039;-91
2022/11/01 11:48:13;;;;;;;89.25;57.88;;;;;;;19.22;52.66;93699.78;5054024;28;20037;-88
2022/11/01 11:50:40;;;;;;;106.18;59.88;;;;;;;19.23;52.71;93706.78;5055827;28;20040;-90
2022/11/01 11:53:19;;;;;;;98.30;57.75;;;;;;;19.23;52.56;93701.28;5057638;28;20042;-90
2022/11/01 11:55:57;;;;;;;104.25;60.40;;;;;;;19.25;52.22;93698.78;5067803;28;20090;-87